Terminal Aerodrome Forecast
Issued by NWS Louisville, KY

Home | Current Version | Previous Version | Text Only | Print | Product List | Glossary On
Versions: 1 2 3 4 5 6 7 8 9 10 11 12 13 14 15
968
FTUS43 KLMK 141723
TAFSDF
TAF
KSDF 141723Z 1418/1524 12007KT 4SM -SN BKN025
      TEMPO 1418/1422 2SM -SN BKN009
     FM150100 16007KT 5SM -SN BKN009
      TEMPO 1504/1507 2SM -SN BKN005
     FM150900 16007KT 5SM BR VCSH BKN012
     FM151500 17005KT 4SM BR OVC015=

USA.gov is the U.S. government's official web portal to all federal, state and local government web resources and services.